Time,TemperatureF,DewpointF,PressureIn,WindDirection,WindDirectionDegrees,WindSpeedMPH,WindSpeedGustMPH,Humidity,HourlyPrecipIn,Conditions,Clouds,dailyrainin,SolarRadiationWatts/m^2,SoftwareType,DateUTC
2013-04-22 00:03:00,31.0,25.0,-100.00,SE,132,2.0,5.0,79,0.00,,,0.00,0.000000,,2013-04-22 04:03:00,
2013-04-22 00:13:00,31.0,25.0,-100.00,SE,132,2.0,5.0,79,0.00,,,0.00,0.000000,,2013-04-22 04:13:00,
2013-04-22 00:23:00,31.0,25.0,-100.00,SE,132,2.0,5.0,79,0.00,,,0.00,0.000000,,2013-04-22 04:23:00,
2013-04-22 00:33:00,31.0,25.0,-100.00,SE,132,2.0,5.0,79,0.00,,,0.00,0.000000,,2013-04-22 04:33:00,
2013-04-22 01:03:00,37.0,20.0,-100.00,ENE,59,4.0,8.0,50,0.00,,,0.00,0.000000,,2013-04-22 05:03:00,
2013-04-22 01:12:00,37.0,20.0,-100.00,ENE,59,4.0,8.0,50,0.00,,,0.00,0.000000,,2013-04-22 05:12:00,
2013-04-22 01:22:00,37.0,20.0,-100.00,ENE,59,4.0,8.0,50,0.00,,,0.00,0.000000,,2013-04-22 05:22:00,
2013-04-22 01:32:00,37.0,20.0,-100.00,ENE,59,4.0,8.0,50,0.00,,,0.00,0.000000,,2013-04-22 05:32:00,
2013-04-22 02:02:00,31.0,24.0,-100.00,ESE,115,2.0,7.0,76,0.00,,,0.00,0.000000,,2013-04-22 06:02:00,
2013-04-22 02:12:00,31.0,24.0,-100.00,ESE,115,2.0,7.0,76,0.00,,,0.00,0.000000,,2013-04-22 06:12:00,
2013-04-22 02:21:00,31.0,24.0,-100.00,ESE,115,2.0,7.0,76,0.00,,,0.00,0.000000,,2013-04-22 06:21:00,
2013-04-22 02:32:00,31.0,24.0,-100.00,ESE,115,2.0,7.0,76,0.00,,,0.00,0.000000,,2013-04-22 06:32:00,
2013-04-22 03:01:00,30.0,25.0,-100.00,SE,138,2.0,4.0,82,0.00,,,0.00,0.000000,,2013-04-22 07:01:00,
2013-04-22 03:12:00,30.0,25.0,-100.00,SE,138,2.0,4.0,82,0.00,,,0.00,0.000000,,2013-04-22 07:12:00,
2013-04-22 03:22:00,30.0,25.0,-100.00,SE,138,2.0,4.0,82,0.00,,,0.00,0.000000,,2013-04-22 07:22:00,
2013-04-22 03:32:00,30.0,25.0,-100.00,SE,138,2.0,4.0,82,0.00,,,0.00,0.000000,,2013-04-22 07:32:00,
2013-04-22 04:02:00,29.0,25.0,-100.00,ESE,112,2.0,4.0,84,0.00,,,0.00,0.000000,,2013-04-22 08:02:00,
2013-04-22 04:11:00,29.0,25.0,-100.00,ESE,112,2.0,4.0,84,0.00,,,0.00,0.000000,,2013-04-22 08:11:00,
2013-04-22 04:22:00,29.0,25.0,-100.00,ESE,112,2.0,4.0,84,0.00,,,0.00,0.000000,,2013-04-22 08:22:00,
2013-04-22 04:32:00,29.0,25.0,-100.00,ESE,112,2.0,4.0,84,0.00,,,0.00,0.000000,,2013-04-22 08:32:00,
2013-04-22 05:01:00,29.0,24.0,-100.00,ESE,102,2.0,5.0,81,0.00,,,0.00,0.000000,,2013-04-22 09:01:00,
2013-04-22 05:11:00,29.0,24.0,-100.00,ESE,102,2.0,5.0,81,0.00,,,0.00,0.000000,,2013-04-22 09:11:00,
2013-04-22 05:21:00,29.0,24.0,-100.00,ESE,102,2.0,5.0,81,0.00,,,0.00,0.000000,,2013-04-22 09:21:00,
2013-04-22 05:33:00,29.0,24.0,-100.00,ESE,102,2.0,5.0,81,0.00,,,0.00,0.000000,,2013-04-22 09:33:00,
2013-04-22 06:03:00,33.0,22.0,-100.00,ENE,78,4.0,9.0,63,0.00,,,0.00,1.000000,,2013-04-22 10:03:00,
2013-04-22 06:12:00,33.0,22.0,-100.00,ENE,78,4.0,9.0,63,0.00,,,0.00,1.000000,,2013-04-22 10:12:00,
2013-04-22 06:23:00,33.0,22.0,-100.00,ENE,78,4.0,9.0,63,0.00,,,0.00,1.000000,,2013-04-22 10:23:00,
2013-04-22 06:32:00,33.0,22.0,-100.00,ENE,78,4.0,9.0,63,0.00,,,0.00,1.000000,,2013-04-22 10:32:00,
2013-04-22 07:02:00,35.0,23.0,-100.00,ENE,61,4.0,8.0,60,0.00,,,0.00,28.000000,,2013-04-22 11:02:00,
2013-04-22 07:12:00,35.0,23.0,-100.00,ENE,61,4.0,8.0,60,0.00,,,0.00,28.000000,,2013-04-22 11:12:00,
2013-04-22 07:22:00,35.0,23.0,-100.00,ENE,61,4.0,8.0,60,0.00,,,0.00,28.000000,,2013-04-22 11:22:00,
2013-04-22 07:32:00,35.0,23.0,-100.00,ENE,61,4.0,8.0,60,0.00,,,0.00,28.000000,,2013-04-22 11:32:00,
2013-04-22 08:02:00,40.0,21.0,-100.00,NE,56,6.0,11.0,47,0.00,,,0.00,160.000000,,2013-04-22 12:02:00,
2013-04-22 08:12:00,40.0,21.0,-100.00,NE,56,6.0,11.0,47,0.00,,,0.00,160.000000,,2013-04-22 12:12:00,
2013-04-22 08:22:00,40.0,21.0,-100.00,NE,56,6.0,11.0,47,0.00,,,0.00,160.000000,,2013-04-22 12:22:00,
2013-04-22 08:32:00,40.0,21.0,-100.00,NE,56,6.0,11.0,47,0.00,,,0.00,160.000000,,2013-04-22 12:32:00,
2013-04-22 09:01:00,43.0,25.0,-100.00,East,86,6.0,13.0,49,0.00,,,0.00,366.000000,,2013-04-22 13:01:00,
2013-04-22 09:11:00,43.0,25.0,-100.00,East,86,6.0,13.0,49,0.00,,,0.00,366.000000,,2013-04-22 13:11:00,
2013-04-22 09:22:00,43.0,25.0,-100.00,East,86,6.0,13.0,49,0.00,,,0.00,366.000000,,2013-04-22 13:22:00,
2013-04-22 09:32:00,43.0,25.0,-100.00,East,86,6.0,13.0,49,0.00,,,0.00,366.000000,,2013-04-22 13:32:00,
2013-04-22 10:02:00,44.0,-99.9,-100.00,ENE,75,6.0,-999.0,-999,0.00,,,0.00,,,2013-04-22 14:02:00,
2013-04-22 10:12:00,44.0,-99.9,-100.00,ENE,75,6.0,-999.0,-999,0.00,,,0.00,,,2013-04-22 14:12:00,
2013-04-22 10:22:00,44.0,-99.9,-100.00,ENE,75,6.0,-999.0,-999,0.00,,,0.00,,,2013-04-22 14:22:00,
2013-04-22 10:33:00,44.0,-99.9,-100.00,ENE,75,6.0,-999.0,-999,0.00,,,0.00,,,2013-04-22 14:33:00,
2013-04-22 11:02:00,44.0,28.0,-100.00,East,93,8.0,17.0,54,0.00,,,0.00,711.000000,,2013-04-22 15:02:00,
2013-04-22 11:12:00,44.0,28.0,-100.00,East,93,8.0,17.0,54,0.00,,,0.00,711.000000,,2013-04-22 15:12:00,
2013-04-22 11:22:00,44.0,28.0,-100.00,East,93,8.0,17.0,54,0.00,,,0.00,711.000000,,2013-04-22 15:22:00,
2013-04-22 11:33:00,44.0,28.0,-100.00,East,93,8.0,17.0,54,0.00,,,0.00,711.000000,,2013-04-22 15:33:00,
2013-04-22 12:03:00,46.0,32.0,-100.00,ESE,109,8.0,15.0,59,0.00,,,0.00,809.000000,,2013-04-22 16:03:00,
2013-04-22 12:12:00,46.0,32.0,-100.00,ESE,109,8.0,15.0,59,0.00,,,0.00,809.000000,,2013-04-22 16:12:00,
2013-04-22 12:23:00,46.0,32.0,-100.00,ESE,109,8.0,15.0,59,0.00,,,0.00,809.000000,,2013-04-22 16:23:00,
2013-04-22 12:33:00,46.0,32.0,-100.00,ESE,109,8.0,15.0,59,0.00,,,0.00,809.000000,,2013-04-22 16:33:00,
2013-04-22 13:02:00,46.0,35.0,-100.00,East,88,9.0,17.0,64,0.00,,,0.00,915.000000,,2013-04-22 17:02:00,
2013-04-22 13:12:00,46.0,35.0,-100.00,East,88,9.0,17.0,64,0.00,,,0.00,915.000000,,2013-04-22 17:12:00,
2013-04-22 13:22:00,46.0,35.0,-100.00,East,88,9.0,17.0,64,0.00,,,0.00,915.000000,,2013-04-22 17:22:00,
2013-04-22 13:32:00,46.0,35.0,-100.00,East,88,9.0,17.0,64,0.00,,,0.00,915.000000,,2013-04-22 17:32:00,
2013-04-22 14:02:00,46.0,35.0,-100.00,East,99,9.0,17.0,64,0.00,,,0.00,907.000000,,2013-04-22 18:02:00,
2013-04-22 14:12:00,46.0,35.0,-100.00,East,99,9.0,17.0,64,0.00,,,0.00,907.000000,,2013-04-22 18:12:00,
2013-04-22 14:22:00,46.0,35.0,-100.00,East,99,9.0,17.0,64,0.00,,,0.00,907.000000,,2013-04-22 18:22:00,
2013-04-22 14:32:00,46.0,35.0,-100.00,East,99,9.0,17.0,64,0.00,,,0.00,907.000000,,2013-04-22 18:32:00,
2013-04-22 15:02:00,47.0,35.0,-100.00,South,169,8.0,15.0,63,0.00,,,0.00,852.000000,,2013-04-22 19:02:00,
2013-04-22 15:12:00,47.0,35.0,-100.00,South,169,8.0,15.0,63,0.00,,,0.00,852.000000,,2013-04-22 19:12:00,
2013-04-22 15:22:00,47.0,35.0,-100.00,South,169,8.0,15.0,63,0.00,,,0.00,852.000000,,2013-04-22 19:22:00,
2013-04-22 15:32:00,47.0,35.0,-100.00,South,169,8.0,15.0,63,0.00,,,0.00,852.000000,,2013-04-22 19:32:00,
2013-04-22 16:02:00,47.0,33.0,-100.00,ESE,120,5.0,15.0,57,0.00,,,0.00,730.000000,,2013-04-22 20:02:00,
2013-04-22 16:11:00,47.0,33.0,-100.00,ESE,120,5.0,15.0,57,0.00,,,0.00,730.000000,,2013-04-22 20:11:00,
2013-04-22 16:22:00,47.0,33.0,-100.00,ESE,120,5.0,15.0,57,0.00,,,0.00,730.000000,,2013-04-22 20:22:00,
2013-04-22 16:32:00,47.0,33.0,-100.00,ESE,120,5.0,15.0,57,0.00,,,0.00,730.000000,,2013-04-22 20:32:00,
2013-04-22 17:02:00,46.0,30.0,-100.00,SSE,158,5.0,12.0,54,0.00,,,0.00,638.000000,,2013-04-22 21:02:00,
2013-04-22 17:12:00,46.0,30.0,-100.00,SSE,158,5.0,12.0,54,0.00,,,0.00,638.000000,,2013-04-22 21:12:00,
2013-04-22 17:22:00,46.0,30.0,-100.00,SSE,158,5.0,12.0,54,0.00,,,0.00,638.000000,,2013-04-22 21:22:00,
2013-04-22 17:33:00,46.0,30.0,-100.00,SSE,158,5.0,12.0,54,0.00,,,0.00,638.000000,,2013-04-22 21:33:00,
2013-04-22 18:03:00,43.0,28.0,-100.00,SE,138,4.0,12.0,56,0.00,,,0.00,380.000000,,2013-04-22 22:03:00,
2013-04-22 18:12:00,43.0,28.0,-100.00,SE,138,4.0,12.0,56,0.00,,,0.00,380.000000,,2013-04-22 22:12:00,
2013-04-22 18:22:00,43.0,28.0,-100.00,SE,138,4.0,12.0,56,0.00,,,0.00,380.000000,,2013-04-22 22:22:00,
2013-04-22 18:33:00,43.0,28.0,-100.00,SE,138,4.0,12.0,56,0.00,,,0.00,380.000000,,2013-04-22 22:33:00,
2013-04-22 19:02:00,41.0,29.0,-100.00,SSE,158,4.0,9.0,63,0.00,,,0.00,104.000000,,2013-04-22 23:02:00,
2013-04-22 19:12:00,41.0,29.0,-100.00,SSE,158,4.0,9.0,63,0.00,,,0.00,104.000000,,2013-04-22 23:12:00,
2013-04-22 19:22:00,41.0,29.0,-100.00,SSE,158,4.0,9.0,63,0.00,,,0.00,104.000000,,2013-04-22 23:22:00,
2013-04-22 19:33:00,41.0,29.0,-100.00,SSE,158,4.0,9.0,63,0.00,,,0.00,104.000000,,2013-04-22 23:33:00,
2013-04-22 20:02:00,38.0,29.0,-100.00,SSE,149,3.0,9.0,70,0.00,,,0.00,24.000000,,2013-04-23 00:02:00,
2013-04-22 20:12:00,38.0,29.0,-100.00,SSE,149,3.0,9.0,70,0.00,,,0.00,24.000000,,2013-04-23 00:12:00,
2013-04-22 20:22:00,38.0,29.0,-100.00,SSE,149,3.0,9.0,70,0.00,,,0.00,24.000000,,2013-04-23 00:22:00,
2013-04-22 20:32:00,38.0,29.0,-100.00,SSE,149,3.0,9.0,70,0.00,,,0.00,24.000000,,2013-04-23 00:32:00,
2013-04-22 21:01:00,35.0,29.0,-100.00,SSE,160,2.0,6.0,78,0.00,,,0.00,0.000000,,2013-04-23 01:01:00,
2013-04-22 21:11:00,35.0,29.0,-100.00,SSE,160,2.0,6.0,78,0.00,,,0.00,0.000000,,2013-04-23 01:11:00,
2013-04-22 21:22:00,35.0,29.0,-100.00,SSE,160,2.0,6.0,78,0.00,,,0.00,0.000000,,2013-04-23 01:22:00,
2013-04-22 21:32:00,35.0,29.0,-100.00,SSE,160,2.0,6.0,78,0.00,,,0.00,0.000000,,2013-04-23 01:32:00,
2013-04-22 22:02:00,33.0,29.0,-100.00,SSE,162,2.0,6.0,85,0.00,,,0.00,0.000000,,2013-04-23 02:02:00,
2013-04-22 22:12:00,33.0,29.0,-100.00,SSE,162,2.0,6.0,85,0.00,,,0.00,0.000000,,2013-04-23 02:12:00,
2013-04-22 22:22:00,33.0,29.0,-100.00,SSE,162,2.0,6.0,85,0.00,,,0.00,0.000000,,2013-04-23 02:22:00,
2013-04-22 22:32:00,33.0,29.0,-100.00,SSE,162,2.0,6.0,85,0.00,,,0.00,0.000000,,2013-04-23 02:32:00,
2013-04-22 23:02:00,34.0,28.0,-100.00,SE,144,2.0,7.0,77,0.00,,,0.00,0.000000,,2013-04-23 03:02:00,
2013-04-22 23:11:00,34.0,28.0,-100.00,SE,144,2.0,7.0,77,0.00,,,0.00,0.000000,,2013-04-23 03:11:00,
2013-04-22 23:22:00,34.0,28.0,-100.00,SE,144,2.0,7.0,77,0.00,,,0.00,0.000000,,2013-04-23 03:22:00,
2013-04-22 23:33:00,34.0,28.0,-100.00,SE,144,2.0,7.0,77,0.00,,,0.00,0.000000,,2013-04-23 03:33:00,